This is the latest recevied weather packets stored in our database for station/object kc7mrq. If no packets are shown the sender has not sent any weather packets the latest 10 day(s).
| Time | Temp. | Humidity | Pressure | Rain* | Wind** | Luminosity | Snow |
|---|---|---|---|---|---|---|---|
| 1777339823 | 4.44° C | 52% | 1016.4 hPa | 0 mm | - | - | - |
| 1777338924 | 4.44° C | 52% | 1016.4 hPa | 0 mm | - | - | - |
| 1777338022 | 3.89° C | 52% | 1016.3 hPa | 0 mm | - | - | - |
| 1777333520 | 5° C | 50% | 1016.5 hPa | 0 mm | - | - | - |
| 1777322774 | 4.44° C | 56% | 1017.1 hPa | 0 mm | - | - | - |
| 1777318254 | 2.78° C | 60% | 1017.6 hPa | 0 mm | - | - | - |
| 1777317349 | 2.78° C | 59% | 1017.7 hPa | 0 mm | - | - | - |
| 1777316465 | 2.78° C | 60% | 1017.9 hPa | 0 mm | - | - | - |
| 1777314639 | 2.22° C | 63% | 1018.3 hPa | 0 mm | - | - | - |
| 1777307422 | -1.11° C | 76% | 1019.3 hPa | 0 mm | - | - | - |
| 1777305618 | -1.67° C | 74% | 1019.2 hPa | 0 mm | - | - | - |
| 1777303812 | -2.22° C | 76% | 1019.2 hPa | 0 mm | - | - | - |
| 1777299362 | -3.89° C | 81% | 1018.9 hPa | 0 mm | - | - | - |
| 1777298477 | -3.89° C | 81% | 1018.9 hPa | 0 mm | - | - | - |
| 1777289453 | -4.44° C | 82% | 1018.2 hPa | 0 mm | - | - | - |
| 1777285849 | -3.89° C | 81% | 1018.3 hPa | 0 mm | - | - | - |
| 1777283147 | -3.89° C | 81% | 1018.1 hPa | 0 mm | - | - | - |
| 1777280443 | -3.89° C | 80% | 1018.5 hPa | 0 mm | - | - | - |
| 1777275036 | -3.89° C | 82% | 1019 hPa | 0 mm | - | - | - |
| 1777268722 | -3.89° C | 80% | 1018.6 hPa | 0 mm | - | - | - |
| 1777262415 | -3.33° C | 78% | 1018.2 hPa | 0 mm | - | - | - |
| 1777261516 | -3.33° C | 78% | 1018 hPa | 0 mm | - | - | - |
| 1777255206 | -2.22° C | 76% | 1016.7 hPa | 0 mm | - | - | - |
| 1777249858 | -1.67° C | 77% | 1015.6 hPa | 0 mm | - | - | - |
| 1777248954 | -1.67° C | 75% | 1015.4 hPa | 0 mm | - | - | - |
* Rain latest hour (hover to see other rain measurements)
** Current wind speed in m/s (hover to see current wind gust speed)